sensor_id;sensor_type;location;lat;lon;timestamp;P1;durP1;ratioP1;P2;durP2;ratioP2
25207;SDS011;13153;52.316;21.166;2024-02-26T00:02:23;28.02;;;17.88;;
25207;SDS011;13153;52.316;21.166;2024-02-26T00:04:49;31.40;;;17.50;;
25207;SDS011;13153;52.316;21.166;2024-02-26T00:07:15;31.58;;;19.00;;
25207;SDS011;13153;52.316;21.166;2024-02-26T00:09:41;32.60;;;18.45;;
25207;SDS011;13153;52.316;21.166;2024-02-26T00:12:07;36.78;;;21.05;;
25207;SDS011;13153;52.316;21.166;2024-02-26T00:14:33;31.92;;;17.85;;
25207;SDS011;13153;52.316;21.166;2024-02-26T00:16:59;33.95;;;18.38;;
25207;SDS011;13153;52.316;21.166;2024-02-26T00:19:25;34.17;;;17.83;;
25207;SDS011;13153;52.316;21.166;2024-02-26T00:21:51;31.98;;;17.95;;
25207;SDS011;13153;52.316;21.166;2024-02-26T00:24:18;29.90;;;17.90;;
25207;SDS011;13153;52.316;21.166;2024-02-26T00:26:44;32.10;;;18.65;;
25207;SDS011;13153;52.316;21.166;2024-02-26T00:29:10;31.13;;;16.92;;
25207;SDS011;13153;52.316;21.166;2024-02-26T00:31:36;30.23;;;16.92;;
25207;SDS011;13153;52.316;21.166;2024-02-26T00:34:05;29.75;;;16.88;;
25207;SDS011;13153;52.316;21.166;2024-02-26T00:36:31;30.17;;;16.40;;
25207;SDS011;13153;52.316;21.166;2024-02-26T00:38:57;27.48;;;15.98;;
25207;SDS011;13153;52.316;21.166;2024-02-26T00:41:22;26.00;;;16.15;;
25207;SDS011;13153;52.316;21.166;2024-02-26T00:43:48;29.50;;;18.20;;
25207;SDS011;13153;52.316;21.166;2024-02-26T00:46:14;30.13;;;17.25;;
25207;SDS011;13153;52.316;21.166;2024-02-26T00:48:40;28.88;;;16.83;;
25207;SDS011;13153;52.316;21.166;2024-02-26T00:51:06;29.88;;;17.15;;
25207;SDS011;13153;52.316;21.166;2024-02-26T00:53:32;28.67;;;16.50;;
25207;SDS011;13153;52.316;21.166;2024-02-26T00:55:59;31.52;;;17.80;;
25207;SDS011;13153;52.316;21.166;2024-02-26T00:58:25;38.95;;;22.88;;
25207;SDS011;13153;52.316;21.166;2024-02-26T01:00:52;41.67;;;23.35;;
25207;SDS011;13153;52.316;21.166;2024-02-26T01:03:18;31.63;;;18.05;;
25207;SDS011;13153;52.316;21.166;2024-02-26T01:05:45;30.33;;;17.67;;
25207;SDS011;13153;52.316;21.166;2024-02-26T01:08:11;28.67;;;16.35;;
25207;SDS011;13153;52.316;21.166;2024-02-26T01:10:36;32.08;;;18.45;;
25207;SDS011;13153;52.316;21.166;2024-02-26T01:13:02;32.38;;;18.73;;
25207;SDS011;13153;52.316;21.166;2024-02-26T01:15:28;32.83;;;19.42;;
25207;SDS011;13153;52.316;21.166;2024-02-26T01:17:54;32.33;;;17.65;;
25207;SDS011;13153;52.316;21.166;2024-02-26T01:20:20;32.13;;;18.55;;
25207;SDS011;13153;52.316;21.166;2024-02-26T01:22:46;28.65;;;18.15;;
25207;SDS011;13153;52.316;21.166;2024-02-26T01:25:12;35.58;;;17.27;;
25207;SDS011;13153;52.316;21.166;2024-02-26T01:27:39;29.45;;;18.02;;
25207;SDS011;13153;52.316;21.166;2024-02-26T01:30:07;32.20;;;17.98;;
25207;SDS011;13153;52.316;21.166;2024-02-26T01:32:33;32.97;;;17.95;;
25207;SDS011;13153;52.316;21.166;2024-02-26T01:35:01;33.40;;;18.15;;
25207;SDS011;13153;52.316;21.166;2024-02-26T01:37:32;32.42;;;18.40;;
25207;SDS011;13153;52.316;21.166;2024-02-26T01:39:58;30.52;;;17.77;;
25207;SDS011;13153;52.316;21.166;2024-02-26T01:42:24;29.50;;;18.13;;
25207;SDS011;13153;52.316;21.166;2024-02-26T01:44:49;31.90;;;17.85;;
25207;SDS011;13153;52.316;21.166;2024-02-26T01:47:15;31.98;;;17.65;;
25207;SDS011;13153;52.316;21.166;2024-02-26T01:49:41;31.13;;;17.13;;
25207;SDS011;13153;52.316;21.166;2024-02-26T01:52:07;28.60;;;16.77;;
25207;SDS011;13153;52.316;21.166;2024-02-26T01:54:36;30.75;;;17.45;;
25207;SDS011;13153;52.316;21.166;2024-02-26T01:57:05;28.50;;;16.60;;
25207;SDS011;13153;52.316;21.166;2024-02-26T01:59:33;30.88;;;18.20;;
25207;SDS011;13153;52.316;21.166;2024-02-26T02:02:01;27.10;;;15.77;;
25207;SDS011;13153;52.316;21.166;2024-02-26T02:04:30;31.38;;;17.25;;
25207;SDS011;13153;52.316;21.166;2024-02-26T02:06:57;27.80;;;16.83;;
25207;SDS011;13153;52.316;21.166;2024-02-26T02:09:25;31.08;;;17.40;;
25207;SDS011;13153;52.316;21.166;2024-02-26T02:11:53;29.52;;;17.90;;
25207;SDS011;13153;52.316;21.166;2024-02-26T02:14:19;29.55;;;17.98;;
25207;SDS011;13153;52.316;21.166;2024-02-26T02:16:46;30.80;;;18.48;;
25207;SDS011;13153;52.316;21.166;2024-02-26T02:19:13;29.20;;;17.35;;
25207;SDS011;13153;52.316;21.166;2024-02-26T02:21:39;27.63;;;16.75;;
25207;SDS011;13153;52.316;21.166;2024-02-26T02:24:05;28.42;;;16.63;;
25207;SDS011;13153;52.316;21.166;2024-02-26T02:26:30;32.38;;;17.63;;
25207;SDS011;13153;52.316;21.166;2024-02-26T02:28:57;31.85;;;17.70;;
25207;SDS011;13153;52.316;21.166;2024-02-26T02:31:24;31.75;;;17.38;;
25207;SDS011;13153;52.316;21.166;2024-02-26T02:33:50;32.03;;;17.42;;
25207;SDS011;13153;52.316;21.166;2024-02-26T02:36:16;28.25;;;17.05;;
25207;SDS011;13153;52.316;21.166;2024-02-26T02:38:51;30.27;;;18.27;;
25207;SDS011;13153;52.316;21.166;2024-02-26T02:41:17;26.98;;;17.13;;
25207;SDS011;13153;52.316;21.166;2024-02-26T02:43:44;31.27;;;18.10;;
25207;SDS011;13153;52.316;21.166;2024-02-26T02:46:10;32.28;;;18.05;;
25207;SDS011;13153;52.316;21.166;2024-02-26T02:48:39;30.23;;;17.70;;
25207;SDS011;13153;52.316;21.166;2024-02-26T02:51:07;30.95;;;18.67;;
25207;SDS011;13153;52.316;21.166;2024-02-26T02:53:34;31.10;;;17.23;;
25207;SDS011;13153;52.316;21.166;2024-02-26T02:56:00;34.85;;;19.48;;
25207;SDS011;13153;52.316;21.166;2024-02-26T02:58:25;31.10;;;18.30;;
25207;SDS011;13153;52.316;21.166;2024-02-26T03:00:51;32.05;;;18.10;;
25207;SDS011;13153;52.316;21.166;2024-02-26T03:03:20;31.40;;;18.30;;
25207;SDS011;13153;52.316;21.166;2024-02-26T03:05:46;32.10;;;19.05;;
25207;SDS011;13153;52.316;21.166;2024-02-26T03:08:11;35.85;;;19.98;;
25207;SDS011;13153;52.316;21.166;2024-02-26T03:10:37;33.40;;;18.55;;
25207;SDS011;13153;52.316;21.166;2024-02-26T03:13:03;32.20;;;18.65;;
25207;SDS011;13153;52.316;21.166;2024-02-26T03:15:29;36.63;;;19.38;;
25207;SDS011;13153;52.316;21.166;2024-02-26T03:17:55;35.13;;;19.27;;
25207;SDS011;13153;52.316;21.166;2024-02-26T03:20:21;35.50;;;19.67;;
25207;SDS011;13153;52.316;21.166;2024-02-26T03:22:46;30.90;;;18.42;;
25207;SDS011;13153;52.316;21.166;2024-02-26T03:25:12;29.35;;;17.98;;
25207;SDS011;13153;52.316;21.166;2024-02-26T03:27:38;32.67;;;19.20;;
25207;SDS011;13153;52.316;21.166;2024-02-26T03:30:04;32.42;;;18.65;;
25207;SDS011;13153;52.316;21.166;2024-02-26T03:32:31;32.90;;;18.63;;
25207;SDS011;13153;52.316;21.166;2024-02-26T03:34:57;35.15;;;19.42;;
25207;SDS011;13153;52.316;21.166;2024-02-26T03:37:23;31.92;;;19.05;;
25207;SDS011;13153;52.316;21.166;2024-02-26T03:39:48;34.15;;;20.38;;
25207;SDS011;13153;52.316;21.166;2024-02-26T03:42:14;32.42;;;19.60;;
25207;SDS011;13153;52.316;21.166;2024-02-26T03:44:41;33.65;;;18.90;;
25207;SDS011;13153;52.316;21.166;2024-02-26T03:47:07;31.42;;;18.70;;
25207;SDS011;13153;52.316;21.166;2024-02-26T03:49:32;30.38;;;18.27;;
25207;SDS011;13153;52.316;21.166;2024-02-26T03:51:58;32.08;;;19.05;;
25207;SDS011;13153;52.316;21.166;2024-02-26T03:54:24;35.03;;;19.52;;
25207;SDS011;13153;52.316;21.166;2024-02-26T03:56:50;36.58;;;19.13;;
25207;SDS011;13153;52.316;21.166;2024-02-26T03:59:15;29.85;;;17.73;;
25207;SDS011;13153;52.316;21.166;2024-02-26T04:01:45;33.17;;;19.25;;
25207;SDS011;13153;52.316;21.166;2024-02-26T04:04:14;34.05;;;19.73;;
25207;SDS011;13153;52.316;21.166;2024-02-26T04:06:44;36.92;;;20.88;;
25207;SDS011;13153;52.316;21.166;2024-02-26T04:09:11;30.60;;;18.13;;
25207;SDS011;13153;52.316;21.166;2024-02-26T04:11:39;30.55;;;18.75;;
25207;SDS011;13153;52.316;21.166;2024-02-26T04:14:05;31.05;;;18.10;;
25207;SDS011;13153;52.316;21.166;2024-02-26T04:16:33;32.70;;;18.80;;
25207;SDS011;13153;52.316;21.166;2024-02-26T04:19:02;35.55;;;22.23;;
25207;SDS011;13153;52.316;21.166;2024-02-26T04:21:28;37.20;;;23.42;;
25207;SDS011;13153;52.316;21.166;2024-02-26T04:23:53;36.47;;;22.25;;
25207;SDS011;13153;52.316;21.166;2024-02-26T04:26:25;37.45;;;22.02;;
25207;SDS011;13153;52.316;21.166;2024-02-26T04:28:52;35.10;;;20.83;;
25207;SDS011;13153;52.316;21.166;2024-02-26T04:31:18;34.55;;;20.75;;
25207;SDS011;13153;52.316;21.166;2024-02-26T04:33:44;33.78;;;20.60;;
25207;SDS011;13153;52.316;21.166;2024-02-26T04:36:15;35.60;;;20.73;;
25207;SDS011;13153;52.316;21.166;2024-02-26T04:38:42;31.48;;;18.58;;
25207;SDS011;13153;52.316;21.166;2024-02-26T04:41:08;34.10;;;20.20;;
25207;SDS011;13153;52.316;21.166;2024-02-26T04:43:34;31.63;;;19.52;;
25207;SDS011;13153;52.316;21.166;2024-02-26T04:46:11;41.00;;;23.00;;
25207;SDS011;13153;52.316;21.166;2024-02-26T04:48:37;40.03;;;22.23;;
25207;SDS011;13153;52.316;21.166;2024-02-26T04:51:07;32.90;;;20.08;;
25207;SDS011;13153;52.316;21.166;2024-02-26T04:53:32;33.53;;;19.02;;
25207;SDS011;13153;52.316;21.166;2024-02-26T04:55:58;33.03;;;19.67;;
25207;SDS011;13153;52.316;21.166;2024-02-26T04:58:24;35.22;;;19.98;;
25207;SDS011;13153;52.316;21.166;2024-02-26T05:00:50;40.83;;;22.25;;
25207;SDS011;13153;52.316;21.166;2024-02-26T05:03:16;38.80;;;22.92;;
25207;SDS011;13153;52.316;21.166;2024-02-26T05:05:45;49.75;;;29.50;;
25207;SDS011;13153;52.316;21.166;2024-02-26T05:08:11;42.25;;;24.88;;
25207;SDS011;13153;52.316;21.166;2024-02-26T05:10:37;34.28;;;21.25;;
25207;SDS011;13153;52.316;21.166;2024-02-26T05:13:06;43.55;;;25.67;;
25207;SDS011;13153;52.316;21.166;2024-02-26T05:15:32;59.33;;;36.90;;
25207;SDS011;13153;52.316;21.166;2024-02-26T05:17:58;98.72;;;61.97;;
25207;SDS011;13153;52.316;21.166;2024-02-26T05:20:24;101.90;;;62.45;;
25207;SDS011;13153;52.316;21.166;2024-02-26T05:22:50;79.95;;;48.22;;
25207;SDS011;13153;52.316;21.166;2024-02-26T05:25:16;51.38;;;31.35;;
25207;SDS011;13153;52.316;21.166;2024-02-26T05:27:43;36.97;;;22.70;;
25207;SDS011;13153;52.316;21.166;2024-02-26T05:30:10;36.38;;;22.00;;
25207;SDS011;13153;52.316;21.166;2024-02-26T05:32:36;34.70;;;20.90;;
25207;SDS011;13153;52.316;21.166;2024-02-26T05:35:02;31.95;;;20.15;;
25207;SDS011;13153;52.316;21.166;2024-02-26T05:37:29;32.15;;;20.23;;
25207;SDS011;13153;52.316;21.166;2024-02-26T05:39:55;37.50;;;21.88;;
25207;SDS011;13153;52.316;21.166;2024-02-26T05:42:21;35.67;;;21.73;;
25207;SDS011;13153;52.316;21.166;2024-02-26T05:44:47;33.85;;;20.73;;
25207;SDS011;13153;52.316;21.166;2024-02-26T05:47:12;34.03;;;20.85;;
25207;SDS011;13153;52.316;21.166;2024-02-26T05:49:42;33.85;;;20.10;;
25207;SDS011;13153;52.316;21.166;2024-02-26T05:52:08;33.47;;;21.05;;
25207;SDS011;13153;52.316;21.166;2024-02-26T05:54:34;35.72;;;20.65;;
25207;SDS011;13153;52.316;21.166;2024-02-26T05:56:59;34.67;;;20.95;;
25207;SDS011;13153;52.316;21.166;2024-02-26T05:59:26;36.38;;;21.35;;
25207;SDS011;13153;52.316;21.166;2024-02-26T06:01:52;36.53;;;22.42;;
25207;SDS011;13153;52.316;21.166;2024-02-26T06:04:18;32.80;;;20.67;;
25207;SDS011;13153;52.316;21.166;2024-02-26T06:06:44;37.10;;;22.13;;
25207;SDS011;13153;52.316;21.166;2024-02-26T06:09:12;35.58;;;20.92;;
25207;SDS011;13153;52.316;21.166;2024-02-26T06:11:38;33.28;;;19.20;;
25207;SDS011;13153;52.316;21.166;2024-02-26T06:14:04;36.38;;;21.27;;
25207;SDS011;13153;52.316;21.166;2024-02-26T06:16:30;34.50;;;22.00;;
25207;SDS011;13153;52.316;21.166;2024-02-26T06:18:56;32.30;;;19.58;;
25207;SDS011;13153;52.316;21.166;2024-02-26T06:21:22;36.63;;;21.15;;
25207;SDS011;13153;52.316;21.166;2024-02-26T06:23:48;32.53;;;20.73;;
25207;SDS011;13153;52.316;21.166;2024-02-26T06:26:14;37.00;;;22.15;;
25207;SDS011;13153;52.316;21.166;2024-02-26T06:28:40;32.25;;;20.45;;
25207;SDS011;13153;52.316;21.166;2024-02-26T06:31:06;31.40;;;20.13;;
25207;SDS011;13153;52.316;21.166;2024-02-26T06:33:31;34.67;;;19.73;;
25207;SDS011;13153;52.316;21.166;2024-02-26T06:35:57;28.67;;;18.02;;
25207;SDS011;13153;52.316;21.166;2024-02-26T06:38:24;30.33;;;18.42;;
25207;SDS011;13153;52.316;21.166;2024-02-26T06:40:49;28.48;;;18.48;;
25207;SDS011;13153;52.316;21.166;2024-02-26T06:43:15;32.38;;;20.05;;
25207;SDS011;13153;52.316;21.166;2024-02-26T06:45:41;49.00;;;26.58;;
25207;SDS011;13153;52.316;21.166;2024-02-26T06:48:07;42.67;;;23.58;;
25207;SDS011;13153;52.316;21.166;2024-02-26T06:50:32;35.40;;;20.45;;
25207;SDS011;13153;52.316;21.166;2024-02-26T06:52:58;39.05;;;22.02;;
25207;SDS011;13153;52.316;21.166;2024-02-26T06:55:24;41.67;;;22.67;;
25207;SDS011;13153;52.316;21.166;2024-02-26T06:57:50;37.90;;;22.65;;
25207;SDS011;13153;52.316;21.166;2024-02-26T07:00:15;37.70;;;22.13;;
25207;SDS011;13153;52.316;21.166;2024-02-26T07:02:42;38.50;;;21.20;;
25207;SDS011;13153;52.316;21.166;2024-02-26T07:05:08;32.95;;;20.13;;
25207;SDS011;13153;52.316;21.166;2024-02-26T07:07:35;54.47;;;30.40;;
25207;SDS011;13153;52.316;21.166;2024-02-26T07:10:01;99.90;;;53.17;;
25207;SDS011;13153;52.316;21.166;2024-02-26T07:12:29;149.20;;;75.75;;
25207;SDS011;13153;52.316;21.166;2024-02-26T07:14:55;119.25;;;61.17;;
25207;SDS011;13153;52.316;21.166;2024-02-26T07:17:21;102.03;;;51.72;;
25207;SDS011;13153;52.316;21.166;2024-02-26T07:19:47;71.35;;;38.83;;
25207;SDS011;13153;52.316;21.166;2024-02-26T07:22:13;47.88;;;28.20;;
25207;SDS011;13153;52.316;21.166;2024-02-26T07:24:39;42.65;;;24.13;;
25207;SDS011;13153;52.316;21.166;2024-02-26T07:27:04;37.88;;;23.17;;
25207;SDS011;13153;52.316;21.166;2024-02-26T07:29:30;31.00;;;19.85;;
25207;SDS011;13153;52.316;21.166;2024-02-26T07:31:56;28.95;;;18.63;;
25207;SDS011;13153;52.316;21.166;2024-02-26T07:34:23;30.92;;;18.20;;
25207;SDS011;13153;52.316;21.166;2024-02-26T07:36:52;24.55;;;16.52;;
25207;SDS011;13153;52.316;21.166;2024-02-26T07:39:19;25.90;;;16.58;;
25207;SDS011;13153;52.316;21.166;2024-02-26T07:41:44;24.70;;;16.00;;
25207;SDS011;13153;52.316;21.166;2024-02-26T07:44:13;27.15;;;17.17;;
25207;SDS011;13153;52.316;21.166;2024-02-26T07:46:39;20.65;;;15.07;;
25207;SDS011;13153;52.316;21.166;2024-02-26T07:49:04;23.08;;;15.52;;
25207;SDS011;13153;52.316;21.166;2024-02-26T07:51:30;26.08;;;15.55;;
25207;SDS011;13153;52.316;21.166;2024-02-26T07:53:56;29.20;;;16.95;;
25207;SDS011;13153;52.316;21.166;2024-02-26T07:56:23;27.08;;;18.33;;
25207;SDS011;13153;52.316;21.166;2024-02-26T07:58:49;24.63;;;17.08;;
25207;SDS011;13153;52.316;21.166;2024-02-26T08:01:15;21.75;;;14.80;;
25207;SDS011;13153;52.316;21.166;2024-02-26T08:03:40;24.27;;;16.90;;
25207;SDS011;13153;52.316;21.166;2024-02-26T08:06:07;23.80;;;15.75;;
25207;SDS011;13153;52.316;21.166;2024-02-26T08:08:33;21.95;;;15.07;;
25207;SDS011;13153;52.316;21.166;2024-02-26T08:10:59;19.40;;;13.77;;
25207;SDS011;13153;52.316;21.166;2024-02-26T08:13:25;21.52;;;14.00;;
25207;SDS011;13153;52.316;21.166;2024-02-26T08:15:51;21.55;;;13.57;;
25207;SDS011;13153;52.316;21.166;2024-02-26T08:18:18;22.58;;;13.93;;
25207;SDS011;13153;52.316;21.166;2024-02-26T08:20:44;20.20;;;14.48;;
25207;SDS011;13153;52.316;21.166;2024-02-26T08:23:10;18.98;;;13.35;;
25207;SDS011;13153;52.316;21.166;2024-02-26T08:25:36;20.17;;;12.18;;
25207;SDS011;13153;52.316;21.166;2024-02-26T08:28:02;19.20;;;13.07;;
25207;SDS011;13153;52.316;21.166;2024-02-26T08:30:28;17.85;;;12.95;;
25207;SDS011;13153;52.316;21.166;2024-02-26T08:32:54;17.08;;;12.32;;
25207;SDS011;13153;52.316;21.166;2024-02-26T08:35:19;18.80;;;12.63;;
25207;SDS011;13153;52.316;21.166;2024-02-26T08:37:45;19.02;;;12.30;;
25207;SDS011;13153;52.316;21.166;2024-02-26T08:40:12;15.70;;;11.88;;
25207;SDS011;13153;52.316;21.166;2024-02-26T08:42:39;16.00;;;11.43;;
25207;SDS011;13153;52.316;21.166;2024-02-26T08:45:05;19.65;;;12.18;;
25207;SDS011;13153;52.316;21.166;2024-02-26T08:47:33;15.10;;;11.85;;
25207;SDS011;13153;52.316;21.166;2024-02-26T08:49:58;18.77;;;13.38;;
25207;SDS011;13153;52.316;21.166;2024-02-26T08:52:24;16.25;;;12.30;;
25207;SDS011;13153;52.316;21.166;2024-02-26T08:54:50;16.20;;;12.20;;
25207;SDS011;13153;52.316;21.166;2024-02-26T08:57:16;19.52;;;12.65;;
25207;SDS011;13153;52.316;21.166;2024-02-26T08:59:41;17.80;;;12.00;;
25207;SDS011;13153;52.316;21.166;2024-02-26T09:02:07;19.45;;;13.82;;
25207;SDS011;13153;52.316;21.166;2024-02-26T09:04:34;17.75;;;12.88;;
25207;SDS011;13153;52.316;21.166;2024-02-26T09:07:01;20.33;;;13.30;;
25207;SDS011;13153;52.316;21.166;2024-02-26T09:09:27;19.63;;;13.20;;
25207;SDS011;13153;52.316;21.166;2024-02-26T09:11:53;19.67;;;14.63;;
25207;SDS011;13153;52.316;21.166;2024-02-26T09:14:20;18.92;;;13.60;;
25207;SDS011;13153;52.316;21.166;2024-02-26T09:16:46;18.70;;;13.40;;
25207;SDS011;13153;52.316;21.166;2024-02-26T09:19:16;19.73;;;13.45;;
25207;SDS011;13153;52.316;21.166;2024-02-26T09:21:42;17.50;;;12.75;;
25207;SDS011;13153;52.316;21.166;2024-02-26T09:24:09;19.38;;;13.40;;
25207;SDS011;13153;52.316;21.166;2024-02-26T09:26:37;19.15;;;14.15;;
25207;SDS011;13153;52.316;21.166;2024-02-26T09:29:03;20.65;;;13.32;;
25207;SDS011;13153;52.316;21.166;2024-02-26T09:31:29;17.48;;;12.63;;
25207;SDS011;13153;52.316;21.166;2024-02-26T09:33:55;20.63;;;14.57;;
25207;SDS011;13153;52.316;21.166;2024-02-26T09:36:21;19.70;;;14.05;;
25207;SDS011;13153;52.316;21.166;2024-02-26T09:38:47;19.60;;;14.32;;
25207;SDS011;13153;52.316;21.166;2024-02-26T09:41:16;20.42;;;14.77;;
25207;SDS011;13153;52.316;21.166;2024-02-26T09:43:43;18.42;;;14.43;;
25207;SDS011;13153;52.316;21.166;2024-02-26T09:46:13;18.92;;;15.20;;
25207;SDS011;13153;52.316;21.166;2024-02-26T09:48:40;20.67;;;15.73;;
25207;SDS011;13153;52.316;21.166;2024-02-26T09:51:09;17.63;;;13.18;;
25207;SDS011;13153;52.316;21.166;2024-02-26T09:53:36;17.90;;;14.73;;
25207;SDS011;13153;52.316;21.166;2024-02-26T09:56:07;17.67;;;14.13;;
25207;SDS011;13153;52.316;21.166;2024-02-26T09:58:34;17.65;;;14.35;;
25207;SDS011;13153;52.316;21.166;2024-02-26T10:01:02;16.48;;;13.15;;
25207;SDS011;13153;52.316;21.166;2024-02-26T10:03:34;18.95;;;14.55;;
25207;SDS011;13153;52.316;21.166;2024-02-26T10:06:07;18.25;;;13.60;;
25207;SDS011;13153;52.316;21.166;2024-02-26T10:08:34;18.45;;;13.10;;
25207;SDS011;13153;52.316;21.166;2024-02-26T10:11:02;15.70;;;12.90;;
25207;SDS011;13153;52.316;21.166;2024-02-26T10:13:30;17.17;;;14.35;;
25207;SDS011;13153;52.316;21.166;2024-02-26T10:15:56;16.77;;;12.90;;
25207;SDS011;13153;52.316;21.166;2024-02-26T10:18:25;20.23;;;15.23;;
25207;SDS011;13153;52.316;21.166;2024-02-26T10:21:01;19.70;;;13.57;;
25207;SDS011;13153;52.316;21.166;2024-02-26T10:23:27;19.13;;;14.05;;
25207;SDS011;13153;52.316;21.166;2024-02-26T10:25:54;17.98;;;14.68;;
25207;SDS011;13153;52.316;21.166;2024-02-26T10:28:20;18.27;;;13.48;;
25207;SDS011;13153;52.316;21.166;2024-02-26T10:30:47;20.20;;;14.65;;
25207;SDS011;13153;52.316;21.166;2024-02-26T10:33:13;18.58;;;14.38;;
25207;SDS011;13153;52.316;21.166;2024-02-26T10:35:39;16.33;;;13.52;;
25207;SDS011;13153;52.316;21.166;2024-02-26T10:38:11;18.30;;;13.63;;
25207;SDS011;13153;52.316;21.166;2024-02-26T10:40:37;15.43;;;13.43;;
25207;SDS011;13153;52.316;21.166;2024-02-26T10:43:03;16.02;;;12.50;;
25207;SDS011;13153;52.316;21.166;2024-02-26T10:45:29;20.67;;;14.13;;
25207;SDS011;13153;52.316;21.166;2024-02-26T10:47:56;17.17;;;11.77;;
25207;SDS011;13153;52.316;21.166;2024-02-26T10:50:22;14.88;;;11.73;;
25207;SDS011;13153;52.316;21.166;2024-02-26T10:52:49;15.65;;;12.10;;
25207;SDS011;13153;52.316;21.166;2024-02-26T10:55:16;18.20;;;11.70;;
25207;SDS011;13153;52.316;21.166;2024-02-26T10:57:45;13.35;;;10.88;;
25207;SDS011;13153;52.316;21.166;2024-02-26T11:00:21;19.20;;;11.40;;
25207;SDS011;13153;52.316;21.166;2024-02-26T11:02:48;13.82;;;11.48;;
25207;SDS011;13153;52.316;21.166;2024-02-26T11:05:15;13.75;;;11.07;;
25207;SDS011;13153;52.316;21.166;2024-02-26T11:07:42;13.45;;;9.25;;
25207;SDS011;13153;52.316;21.166;2024-02-26T11:10:09;12.63;;;10.25;;
25207;SDS011;13153;52.316;21.166;2024-02-26T11:12:37;11.15;;;9.15;;
25207;SDS011;13153;52.316;21.166;2024-02-26T11:15:05;13.10;;;9.85;;
25207;SDS011;13153;52.316;21.166;2024-02-26T11:17:31;13.82;;;9.98;;
25207;SDS011;13153;52.316;21.166;2024-02-26T11:19:59;11.63;;;8.82;;
25207;SDS011;13153;52.316;21.166;2024-02-26T11:22:27;11.30;;;8.30;;
25207;SDS011;13153;52.316;21.166;2024-02-26T11:24:54;13.65;;;9.80;;
25207;SDS011;13153;52.316;21.166;2024-02-26T11:27:27;11.38;;;8.85;;
25207;SDS011;13153;52.316;21.166;2024-02-26T11:29:58;11.95;;;8.10;;
25207;SDS011;13153;52.316;21.166;2024-02-26T11:32:27;14.75;;;9.77;;
25207;SDS011;13153;52.316;21.166;2024-02-26T11:34:55;12.07;;;8.48;;
25207;SDS011;13153;52.316;21.166;2024-02-26T11:37:23;25.05;;;13.52;;
25207;SDS011;13153;52.316;21.166;2024-02-26T11:39:51;14.85;;;9.38;;
25207;SDS011;13153;52.316;21.166;2024-02-26T11:42:18;8.93;;;7.25;;
25207;SDS011;13153;52.316;21.166;2024-02-26T11:44:53;10.60;;;8.00;;
25207;SDS011;13153;52.316;21.166;2024-02-26T11:47:21;9.15;;;7.32;;
25207;SDS011;13153;52.316;21.166;2024-02-26T11:49:48;12.40;;;8.63;;
25207;SDS011;13153;52.316;21.166;2024-02-26T11:52:14;10.25;;;7.22;;
25207;SDS011;13153;52.316;21.166;2024-02-26T11:54:45;10.77;;;7.55;;
25207;SDS011;13153;52.316;21.166;2024-02-26T12:00:03;9.52;;;6.85;;
25207;SDS011;13153;52.316;21.166;2024-02-26T12:02:50;7.05;;;6.05;;
25207;SDS011;13153;52.316;21.166;2024-02-26T12:05:25;7.93;;;6.60;;
25207;SDS011;13153;52.316;21.166;2024-02-26T12:08:06;9.32;;;6.50;;
25207;SDS011;13153;52.316;21.166;2024-02-26T12:10:35;8.60;;;6.38;;
25207;SDS011;13153;52.316;21.166;2024-02-26T12:13:07;10.90;;;6.28;;
25207;SDS011;13153;52.316;21.166;2024-02-26T12:15:44;8.77;;;5.93;;
25207;SDS011;13153;52.316;21.166;2024-02-26T12:18:21;10.88;;;6.20;;
25207;SDS011;13153;52.316;21.166;2024-02-26T12:21:00;7.68;;;5.75;;
25207;SDS011;13153;52.316;21.166;2024-02-26T12:23:29;9.18;;;5.75;;
25207;SDS011;13153;52.316;21.166;2024-02-26T12:25:59;6.03;;;4.80;;
25207;SDS011;13153;52.316;21.166;2024-02-26T12:28:29;7.47;;;5.60;;
25207;SDS011;13153;52.316;21.166;2024-02-26T12:30:55;8.88;;;5.47;;
25207;SDS011;13153;52.316;21.166;2024-02-26T12:33:24;7.95;;;6.32;;
25207;SDS011;13153;52.316;21.166;2024-02-26T12:35:51;8.95;;;5.55;;
25207;SDS011;13153;52.316;21.166;2024-02-26T12:38:18;9.20;;;5.38;;
25207;SDS011;13153;52.316;21.166;2024-02-26T12:40:45;8.63;;;5.90;;
25207;SDS011;13153;52.316;21.166;2024-02-26T12:43:11;10.93;;;7.15;;
25207;SDS011;13153;52.316;21.166;2024-02-26T12:45:40;8.55;;;5.68;;
25207;SDS011;13153;52.316;21.166;2024-02-26T12:48:11;7.80;;;5.65;;
25207;SDS011;13153;52.316;21.166;2024-02-26T12:50:38;6.03;;;4.93;;
25207;SDS011;13153;52.316;21.166;2024-02-26T12:53:03;8.50;;;5.20;;
25207;SDS011;13153;52.316;21.166;2024-02-26T12:55:31;6.50;;;5.20;;
25207;SDS011;13153;52.316;21.166;2024-02-26T12:57:59;5.40;;;4.70;;
25207;SDS011;13153;52.316;21.166;2024-02-26T13:00:26;6.43;;;4.40;;
25207;SDS011;13153;52.316;21.166;2024-02-26T13:02:56;6.13;;;4.30;;
25207;SDS011;13153;52.316;21.166;2024-02-26T13:05:25;8.32;;;5.43;;
25207;SDS011;13153;52.316;21.166;2024-02-26T13:07:51;9.52;;;4.90;;
25207;SDS011;13153;52.316;21.166;2024-02-26T13:10:18;7.43;;;3.63;;
25207;SDS011;13153;52.316;21.166;2024-02-26T13:12:45;5.15;;;4.03;;
25207;SDS011;13153;52.316;21.166;2024-02-26T13:15:21;6.28;;;3.78;;
25207;SDS011;13153;52.316;21.166;2024-02-26T13:17:47;4.10;;;3.30;;
25207;SDS011;13153;52.316;21.166;2024-02-26T13:20:27;4.43;;;3.40;;
25207;SDS011;13153;52.316;21.166;2024-02-26T13:23:03;3.80;;;3.35;;
25207;SDS011;13153;52.316;21.166;2024-02-26T13:25:30;6.13;;;3.33;;
25207;SDS011;13153;52.316;21.166;2024-02-26T13:28:06;4.25;;;3.08;;
25207;SDS011;13153;52.316;21.166;2024-02-26T13:30:33;5.13;;;3.30;;
25207;SDS011;13153;52.316;21.166;2024-02-26T13:33:07;4.10;;;2.80;;
25207;SDS011;13153;52.316;21.166;2024-02-26T13:35:34;5.47;;;3.20;;
25207;SDS011;13153;52.316;21.166;2024-02-26T13:38:01;3.08;;;2.70;;
25207;SDS011;13153;52.316;21.166;2024-02-26T13:40:27;3.42;;;2.70;;
25207;SDS011;13153;52.316;21.166;2024-02-26T13:42:54;3.75;;;2.70;;
25207;SDS011;13153;52.316;21.166;2024-02-26T13:45:20;3.25;;;2.63;;
25207;SDS011;13153;52.316;21.166;2024-02-26T13:47:45;3.88;;;2.80;;
25207;SDS011;13153;52.316;21.166;2024-02-26T13:50:11;4.82;;;3.25;;
25207;SDS011;13153;52.316;21.166;2024-02-26T13:52:37;3.63;;;3.13;;
25207;SDS011;13153;52.316;21.166;2024-02-26T13:55:03;4.35;;;3.30;;
25207;SDS011;13153;52.316;21.166;2024-02-26T13:57:29;7.45;;;3.58;;
25207;SDS011;13153;52.316;21.166;2024-02-26T13:59:55;4.03;;;3.40;;
25207;SDS011;13153;52.316;21.166;2024-02-26T14:02:21;5.57;;;3.25;;
25207;SDS011;13153;52.316;21.166;2024-02-26T14:04:47;5.50;;;3.65;;
25207;SDS011;13153;52.316;21.166;2024-02-26T14:07:13;5.75;;;3.40;;
25207;SDS011;13153;52.316;21.166;2024-02-26T14:09:39;5.97;;;3.42;;
25207;SDS011;13153;52.316;21.166;2024-02-26T14:12:04;5.43;;;4.03;;
25207;SDS011;13153;52.316;21.166;2024-02-26T14:14:30;4.53;;;3.60;;
25207;SDS011;13153;52.316;21.166;2024-02-26T14:17:00;8.18;;;3.50;;